TimeEST,TemperatureF,Dew PointF,Humidity,Sea Level PressureIn,VisibilityMPH,Wind Direction,Wind SpeedMPH,Gust SpeedMPH,PrecipitationIn,Events,Conditions,WindDirDegrees,DateUTC
12:15 AM,39.2,23.0,52,29.61,10.0,ESE,15.0,23.0,N/A,,Clear,110,2012-12-22 05:15:00
12:35 AM,39.2,23.0,52,29.61,10.0,East,17.3,25.3,N/A,,Clear,100,2012-12-22 05:35:00
12:55 AM,39.2,23.0,52,29.62,10.0,ESE,15.0,24.2,N/A,,Clear,110,2012-12-22 05:55:00
1:15 AM,41.0,23.0,49,29.62,10.0,ESE,11.5,24.2,N/A,,Clear,110,2012-12-22 06:15:00
1:35 AM,39.2,24.8,56,29.63,10.0,ESE,16.1,21.9,N/A,,Clear,110,2012-12-22 06:35:00
1:56 AM,39.2,24.8,56,29.63,10.0,ESE,13.8,19.6,N/A,,Scattered Clouds,110,2012-12-22 06:56:00
2:15 AM,39.2,24.8,56,29.64,10.0,ESE,12.7,25.3,N/A,,Mostly Cloudy,110,2012-12-22 07:15:00
2:35 AM,41.0,24.8,53,29.64,10.0,ESE,15.0,23.0,N/A,,Overcast,110,2012-12-22 07:35:00
2:55 AM,39.2,24.8,56,29.65,10.0,East,15.0,26.5,N/A,,Scattered Clouds,100,2012-12-22 07:55:00
3:15 AM,39.2,24.8,56,29.65,10.0,East,17.3,23.0,N/A,,Clear,100,2012-12-22 08:15:00
3:35 AM,39.2,24.8,56,29.65,10.0,ESE,13.8,20.7,N/A,,Clear,110,2012-12-22 08:35:00
3:55 AM,39.2,24.8,56,29.66,10.0,East,17.3,23.0,N/A,,Clear,100,2012-12-22 08:55:00
4:15 AM,39.2,24.8,56,29.67,10.0,ESE,10.4,26.5,N/A,,Clear,110,2012-12-22 09:15:00
4:35 AM,39.2,24.8,56,29.67,10.0,East,19.6,27.6,N/A,,Clear,100,2012-12-22 09:35:00
4:55 AM,39.2,24.8,56,29.68,10.0,ESE,13.8,23.0,N/A,,Clear,110,2012-12-22 09:55:00
5:15 AM,39.2,24.8,56,29.69,10.0,ESE,15.0,24.2,N/A,,Scattered Clouds,110,2012-12-22 10:15:00
5:35 AM,39.2,24.8,56,29.70,10.0,ESE,17.3,24.2,N/A,,Mostly Cloudy,110,2012-12-22 10:35:00
5:55 AM,41.0,24.8,53,29.71,10.0,ESE,12.7,20.7,N/A,,Scattered Clouds,110,2012-12-22 10:55:00
6:15 AM,41.0,23.0,49,29.73,10.0,ESE,13.8,24.2,N/A,,Clear,110,2012-12-22 11:15:00
6:35 AM,41.0,23.0,49,29.73,10.0,ESE,17.3,25.3,N/A,,Mostly Cloudy,110,2012-12-22 11:35:00
6:55 AM,41.0,23.0,49,29.75,10.0,ESE,16.1,24.2,N/A,,Overcast,110,2012-12-22 11:55:00
7:15 AM,41.0,24.8,53,29.76,10.0,ESE,15.0,28.8,N/A,,Overcast,110,2012-12-22 12:15:00
7:35 AM,41.0,24.8,53,29.77,10.0,ESE,13.8,21.9,N/A,,Overcast,110,2012-12-22 12:35:00
7:55 AM,41.0,24.8,53,29.77,10.0,ESE,16.1,26.5,N/A,,Overcast,110,2012-12-22 12:55:00
8:16 AM,41.0,24.8,53,29.78,10.0,ESE,13.8,19.6,N/A,,Overcast,110,2012-12-22 13:16:00
8:35 AM,41.0,26.6,57,29.79,10.0,ESE,15.0,23.0,N/A,,Overcast,120,2012-12-22 13:35:00
8:55 AM,42.8,26.6,53,29.80,10.0,ESE,19.6,24.2,N/A,,Overcast,120,2012-12-22 13:55:00
9:15 AM,42.8,26.6,53,29.81,10.0,ESE,19.6,25.3,N/A,,Overcast,120,2012-12-22 14:15:00
9:35 AM,44.6,23.0,43,29.82,10.0,SE,16.1,35.7,N/A,,Overcast,130,2012-12-22 14:35:00
9:56 AM,44.6,26.6,49,29.82,10.0,ESE,20.7,31.1,N/A,,Overcast,120,2012-12-22 14:56:00
10:15 AM,42.8,24.8,49,29.83,10.0,ESE,25.3,35.7,N/A,,Overcast,120,2012-12-22 15:15:00
10:35 AM,44.6,24.8,46,29.83,10.0,SE,26.5,44.9,N/A,,Mostly Cloudy,130,2012-12-22 15:35:00
10:55 AM,44.6,23.0,43,29.84,10.0,ESE,31.1,41.4,N/A,,Mostly Cloudy,120,2012-12-22 15:55:00
11:15 AM,42.8,24.8,49,29.84,10.0,SE,29.9,39.1,N/A,,Overcast,130,2012-12-22 16:15:00
11:35 AM,44.6,21.2,39,29.84,10.0,SE,32.2,44.9,N/A,,Scattered Clouds,130,2012-12-22 16:35:00
11:55 AM,44.6,24.8,46,29.84,10.0,ESE,27.6,38.0,N/A,,Scattered Clouds,120,2012-12-22 16:55:00
12:15 PM,44.6,23.0,43,29.84,10.0,SE,28.8,41.4,N/A,,Scattered Clouds,130,2012-12-22 17:15:00
12:35 PM,44.6,23.0,43,29.84,10.0,SE,28.8,42.6,N/A,,Scattered Clouds,130,2012-12-22 17:35:00
12:56 PM,44.6,21.2,39,29.84,10.0,SE,25.3,49.5,N/A,,Scattered Clouds,130,2012-12-22 17:56:00
1:15 PM,46.4,23.0,40,29.84,10.0,ESE,27.6,38.0,N/A,,Clear,120,2012-12-22 18:15:00
1:35 PM,46.4,24.8,43,29.84,10.0,ESE,23.0,35.7,N/A,,Clear,120,2012-12-22 18:35:00
1:55 PM,46.4,23.0,40,29.84,10.0,SE,24.2,36.8,N/A,,Clear,130,2012-12-22 18:55:00
2:15 PM,46.4,23.0,40,29.85,10.0,SE,17.3,35.7,N/A,,Clear,130,2012-12-22 19:15:00
2:35 PM,46.4,23.0,40,29.86,10.0,SE,20.7,34.5,N/A,,Clear,130,2012-12-22 19:35:00
2:55 PM,46.4,24.8,43,29.87,10.0,ESE,17.3,29.9,N/A,,Clear,120,2012-12-22 19:55:00
3:15 PM,46.4,21.2,37,29.87,10.0,SE,21.9,32.2,N/A,,Clear,130,2012-12-22 20:15:00
3:35 PM,46.4,21.2,37,29.88,10.0,SE,21.9,31.1,N/A,,Clear,130,2012-12-22 20:35:00
3:55 PM,46.4,21.2,37,29.89,10.0,SE,24.2,35.7,N/A,,Clear,130,2012-12-22 20:55:00
4:15 PM,44.6,21.2,39,29.90,10.0,SE,23.0,34.5,N/A,,Clear,130,2012-12-22 21:15:00
4:35 PM,44.6,23.0,43,29.91,10.0,ESE,20.7,27.6,N/A,,Clear,120,2012-12-22 21:35:00
4:55 PM,44.6,21.2,39,29.91,10.0,SE,15.0,28.8,N/A,,Clear,130,2012-12-22 21:55:00
5:16 PM,44.6,23.0,43,29.92,10.0,SE,13.8,20.7,N/A,,Clear,130,2012-12-22 22:16:00
5:35 PM,44.6,23.0,43,29.93,10.0,ESE,12.7,21.9,N/A,,Clear,120,2012-12-22 22:35:00
5:55 PM,44.6,21.2,39,29.94,10.0,ESE,15.0,21.9,N/A,,Clear,120,2012-12-22 22:55:00
6:15 PM,42.8,23.0,46,29.95,10.0,SE,15.0,18.4,N/A,,Clear,130,2012-12-22 23:15:00
6:35 PM,42.8,23.0,46,29.97,10.0,ESE,13.8,21.9,N/A,,Clear,120,2012-12-22 23:35:00
6:55 PM,44.6,23.0,43,29.98,10.0,SE,15.0,20.7,N/A,,Clear,130,2012-12-22 23:55:00
7:15 PM,44.6,23.0,43,29.99,10.0,ESE,12.7,18.4,N/A,,Clear,120,2012-12-23 00:15:00
7:35 PM,42.8,21.2,42,29.99,10.0,ESE,17.3,21.9,N/A,,Clear,120,2012-12-23 00:35:00
7:56 PM,42.8,23.0,46,30.00,10.0,ESE,9.2,-,N/A,,Clear,120,2012-12-23 00:56:00
8:15 PM,42.8,24.8,49,30.00,10.0,SE,8.1,-,N/A,,Clear,130,2012-12-23 01:15:00
8:35 PM,42.8,23.0,46,30.01,10.0,ESE,9.2,18.4,N/A,,Clear,120,2012-12-23 01:35:00
8:55 PM,41.0,23.0,49,30.01,10.0,SE,10.4,18.4,N/A,,Clear,130,2012-12-23 01:55:00
9:15 PM,41.0,23.0,49,30.02,10.0,SE,9.2,-,N/A,,Clear,130,2012-12-23 02:15:00
9:35 PM,41.0,23.0,49,30.02,10.0,SE,9.2,-,N/A,,Clear,130,2012-12-23 02:35:00
9:55 PM,39.2,24.8,56,30.03,10.0,SE,8.1,-,N/A,,Clear,130,2012-12-23 02:55:00
10:15 PM,39.2,24.8,56,30.04,10.0,ESE,9.2,-,N/A,,Clear,120,2012-12-23 03:15:00
10:36 PM,39.2,24.8,56,30.05,10.0,SE,6.9,-,N/A,,Clear,130,2012-12-23 03:36:00
10:55 PM,39.2,24.8,56,30.04,10.0,SE,3.5,-,N/A,,Clear,130,2012-12-23 03:55:00
11:15 PM,39.2,24.8,56,30.04,10.0,ESE,6.9,-,N/A,,Clear,120,2012-12-23 04:15:00
11:35 PM,39.2,24.8,56,30.04,10.0,ESE,4.6,-,N/A,,Clear,120,2012-12-23 04:35:00
11:55 PM,35.6,26.6,70,30.04,10.0,ESE,4.6,-,N/A,,Clear,120,2012-12-23 04:55:00